createdAt,value
2022-09-03T00:00:11.358Z,96017.41
2022-09-03T00:02:48.088Z,96020.72
2022-09-03T00:05:38.793Z,96024.41
2022-09-03T00:08:15.917Z,96025.38
2022-09-03T00:11:07.810Z,96032.75
2022-09-03T00:13:43.441Z,96035.53
2022-09-03T00:16:18.918Z,96042.88
2022-09-03T00:19:01.943Z,96049.00
2022-09-03T00:21:45.299Z,96049.81
2022-09-03T00:24:18.822Z,96048.66
2022-09-03T00:26:56.524Z,96053.72
2022-09-03T00:29:40.449Z,96052.56
2022-09-03T00:32:18.779Z,96058.53
2022-09-03T00:35:00.044Z,96060.50
2022-09-03T00:37:35.529Z,96061.81
2022-09-03T00:40:17.461Z,96063.91
2022-09-03T00:43:04.445Z,96073.63
2022-09-03T00:46:19.153Z,96069.31
2022-09-03T00:49:06.578Z,96075.22
2022-09-03T00:52:00.244Z,96078.41
2022-09-03T00:54:59.090Z,96085.44
2022-09-03T00:57:59.941Z,96085.09
2022-09-03T01:00:30.177Z,96090.88
2022-09-03T01:03:09.343Z,96084.06
2022-09-03T01:05:45.649Z,96095.03
2022-09-03T01:08:37.633Z,96082.66
2022-09-03T01:11:21.301Z,96093.38
2022-09-03T01:14:10.348Z,96099.22
2022-09-03T01:17:16.700Z,96099.78
2022-09-03T01:20:13.072Z,96100.56
2022-09-03T01:23:13.501Z,96088.47
2022-09-03T01:26:02.260Z,96099.63
2022-09-03T01:28:50.172Z,96101.63
2022-09-03T01:31:53.792Z,96103.28
2022-09-03T01:34:44.467Z,96112.88
2022-09-03T01:37:40.426Z,96107.50
2022-09-03T01:40:50.238Z,96108.72
2022-09-03T01:43:45.228Z,96116.00
2022-09-03T01:46:32.637Z,96109.66
2022-09-03T01:49:17.715Z,96123.94
2022-09-03T01:51:46.615Z,96122.06
2022-09-03T01:54:25.695Z,96129.94
2022-09-03T01:57:34.993Z,96126.56
2022-09-03T02:00:14.421Z,96134.78
2022-09-03T02:02:48.683Z,96140.41
2022-09-03T02:05:25.334Z,96148.97
2022-09-03T02:08:11.570Z,96145.28
2022-09-03T02:10:54.247Z,96145.06
2022-09-03T02:13:32.741Z,96158.28
2022-09-03T02:16:08.301Z,96148.25
2022-09-03T02:18:47.050Z,96156.31
2022-09-03T02:21:22.517Z,96157.06
2022-09-03T02:23:52.948Z,96168.59
2022-09-03T02:26:25.000Z,96166.63
2022-09-03T02:28:55.452Z,96182.38
2022-09-03T02:31:24.744Z,96190.53
2022-09-03T02:33:53.841Z,96183.94
2022-09-03T02:36:47.158Z,96196.41
2022-09-03T02:39:17.848Z,96189.25
2022-09-03T02:41:52.477Z,96196.16
2022-09-03T02:44:34.199Z,96203.75
2022-09-03T02:47:07.170Z,96199.28
2022-09-03T02:49:36.337Z,96195.66
2022-09-03T02:52:12.512Z,96201.00
2022-09-03T02:54:42.641Z,96205.38
2022-09-03T02:57:16.927Z,96203.03
2022-09-03T02:59:53.072Z,96210.16
2022-09-03T03:02:22.828Z,96215.22
2022-09-03T03:04:54.612Z,96214.19
2022-09-03T03:07:23.633Z,96205.97
2022-09-03T03:09:52.597Z,96212.44
2022-09-03T03:12:22.016Z,96206.34
2022-09-03T03:14:50.828Z,96220.09
2022-09-03T03:17:19.689Z,96220.91
2022-09-03T03:19:48.514Z,96231.97
2022-09-03T03:22:17.333Z,96230.84
2022-09-03T03:24:46.312Z,96236.81
2022-09-03T03:27:15.533Z,96235.06
2022-09-03T03:29:44.420Z,96230.41
2022-09-03T03:32:13.590Z,96238.00
2022-09-03T03:34:42.371Z,96239.16
2022-09-03T03:37:11.573Z,96250.50
2022-09-03T03:39:40.685Z,96240.81
2022-09-03T03:42:09.838Z,96251.69
2022-09-03T03:44:38.843Z,96262.25
2022-09-03T03:47:07.742Z,96254.03
2022-09-03T03:49:36.625Z,96255.84
2022-09-03T03:52:05.686Z,96260.06
2022-09-03T03:54:34.522Z,96246.75
2022-09-03T03:57:03.631Z,96261.13
2022-09-03T03:59:32.683Z,96263.56
2022-09-03T04:02:02.260Z,96265.94
2022-09-03T04:04:31.177Z,96266.66
2022-09-03T04:07:00.788Z,96270.78
2022-09-03T04:09:30.000Z,96281.38
2022-09-03T04:11:58.855Z,96285.72
2022-09-03T04:14:28.501Z,96274.88
2022-09-03T04:16:57.986Z,96277.53
2022-09-03T04:19:29.263Z,96292.69
2022-09-03T04:21:58.435Z,96288.81
2022-09-03T04:24:28.245Z,96310.91
2022-09-03T04:26:57.364Z,96302.72
2022-09-03T04:29:26.284Z,96308.13
2022-09-03T04:32:13.613Z,96310.00
2022-09-03T04:34:42.575Z,96311.22
2022-09-03T04:37:11.443Z,96322.63
2022-09-03T04:39:40.290Z,96319.69
2022-09-03T04:42:09.454Z,96328.91
2022-09-03T04:44:39.177Z,96325.53
2022-09-03T04:47:08.263Z,96318.41
2022-09-03T04:49:37.415Z,96313.63
2022-09-03T04:52:06.305Z,96308.31
2022-09-03T04:54:35.438Z,96309.69
2022-09-03T04:57:04.400Z,96310.16
2022-09-03T04:59:33.453Z,96326.03
2022-09-03T05:02:02.473Z,96319.72
2022-09-03T05:04:31.449Z,96314.06
2022-09-03T05:07:00.525Z,96317.19
2022-09-03T05:09:29.427Z,96325.38
2022-09-03T05:11:58.255Z,96324.25
2022-09-03T05:14:27.195Z,96324.13
2022-09-03T05:16:56.012Z,96331.34
2022-09-03T05:19:24.971Z,96331.47
2022-09-03T05:21:53.924Z,96339.94
2022-09-03T05:24:22.817Z,96340.47
2022-09-03T05:26:51.630Z,96346.63
2022-09-03T05:29:22.667Z,96351.97
2022-09-03T05:31:51.605Z,96340.06
2022-09-03T05:34:20.496Z,96359.56
2022-09-03T05:36:50.427Z,96351.50
2022-09-03T05:39:19.392Z,96354.38
2022-09-03T05:41:51.160Z,96349.75
2022-09-03T05:44:23.744Z,96355.59
2022-09-03T05:46:52.708Z,96352.84
2022-09-03T05:49:21.571Z,96358.59
2022-09-03T05:51:50.411Z,96366.78
2022-09-03T05:54:19.271Z,96366.97
2022-09-03T05:56:48.189Z,96370.38
2022-09-03T05:59:17.086Z,96375.59
2022-09-03T06:01:51.117Z,96375.13
2022-09-03T06:04:21.845Z,96391.53
2022-09-03T06:06:51.071Z,96395.81
2022-09-03T06:09:23.477Z,96406.69
2022-09-03T06:11:54.464Z,96422.25
2022-09-03T06:14:26.454Z,96433.72
2022-09-03T06:16:56.387Z,96426.84
2022-09-03T06:19:25.337Z,96435.41
2022-09-03T06:21:54.243Z,96435.00
2022-09-03T06:24:28.587Z,96426.72
2022-09-03T06:26:57.936Z,96430.16
2022-09-03T06:29:27.604Z,96424.97
2022-09-03T06:31:57.079Z,96426.09
2022-09-03T06:34:27.762Z,96432.59
2022-09-03T06:36:56.626Z,96437.53
2022-09-03T06:39:26.306Z,96422.44
2022-09-03T06:41:55.802Z,96433.38
2022-09-03T06:44:35.321Z,96435.38
2022-09-03T06:47:04.248Z,96441.34
2022-09-03T06:49:33.133Z,96440.97
2022-09-03T06:52:02.021Z,96444.44
2022-09-03T06:54:30.886Z,96444.81
2022-09-03T06:56:59.774Z,96448.25
2022-09-03T06:59:28.972Z,96448.53
2022-09-03T07:02:01.489Z,96442.34
2022-09-03T07:04:30.478Z,96437.06
2022-09-03T07:06:59.358Z,96446.81
2022-09-03T07:09:28.358Z,96448.00
2022-09-03T07:11:57.104Z,96450.34
2022-09-03T07:14:26.209Z,96446.00
2022-09-03T07:16:56.095Z,96453.31
2022-09-03T07:19:24.891Z,96458.94
2022-09-03T07:21:53.968Z,96453.00
2022-09-03T07:24:22.818Z,96460.16
2022-09-03T07:26:51.833Z,96454.94
2022-09-03T07:29:21.422Z,96467.31
2022-09-03T07:31:52.807Z,96482.81
2022-09-03T07:34:26.561Z,96476.13
2022-09-03T07:36:55.756Z,96474.53
2022-09-03T07:39:24.806Z,96478.44
2022-09-03T07:41:54.412Z,96472.97
2022-09-03T07:44:25.343Z,96465.66
2022-09-03T07:46:54.228Z,96478.16
2022-09-03T07:49:23.665Z,96475.69
2022-09-03T07:51:54.806Z,96477.72
2022-09-03T07:54:26.711Z,96500.97
2022-09-03T07:56:56.389Z,96486.06
2022-09-03T07:59:26.588Z,96496.97
2022-09-03T08:01:55.805Z,96497.75
2022-09-03T08:04:25.328Z,96497.69
2022-09-03T08:06:56.277Z,96501.94
2022-09-03T08:09:25.320Z,96510.09
2022-09-03T08:11:54.348Z,96512.28
2022-09-03T08:14:23.258Z,96520.88
2022-09-03T08:16:52.136Z,96512.63
2022-09-03T08:19:21.209Z,96530.53
2022-09-03T08:21:50.148Z,96515.75
2022-09-03T08:24:22.585Z,96528.59
2022-09-03T08:26:52.571Z,96533.75
2022-09-03T08:29:22.602Z,96533.88
2022-09-03T08:31:52.089Z,96540.53
2022-09-03T08:34:21.494Z,96537.91
2022-09-03T08:36:50.999Z,96536.59
2022-09-03T08:39:19.867Z,96553.81
2022-09-03T08:41:52.503Z,96558.19
2022-09-03T08:44:50.450Z,96554.28
2022-09-03T08:47:31.346Z,96551.50
2022-09-03T08:50:18.062Z,96558.25
2022-09-03T08:52:49.690Z,96566.56
2022-09-03T08:55:34.650Z,96565.84
2022-09-03T08:58:26.403Z,96571.25
2022-09-03T09:01:19.608Z,96560.63
2022-09-03T09:03:48.626Z,96568.38
2022-09-03T09:06:41.214Z,96570.94
2022-09-03T09:09:38.348Z,96575.81
2022-09-03T09:12:42.864Z,96576.84
2022-09-03T09:15:27.860Z,96587.59
2022-09-03T09:18:28.937Z,96587.78
2022-09-03T09:21:27.519Z,96588.13
2022-09-03T09:24:04.374Z,96589.25
2022-09-03T09:26:34.430Z,96584.56
2022-09-03T09:29:11.092Z,96593.50
2022-09-03T09:31:45.294Z,96593.63
2022-09-03T09:34:14.256Z,96599.44
2022-09-03T09:36:54.971Z,96599.94
2022-09-03T09:39:24.663Z,96599.91
2022-09-03T09:42:11.842Z,96604.28
2022-09-03T09:44:44.234Z,96610.13
2022-09-03T09:47:34.534Z,96617.97
2022-09-03T09:50:04.408Z,96616.97
2022-09-03T09:52:34.221Z,96610.59
2022-09-03T09:55:18.820Z,96633.75
2022-09-03T09:57:48.813Z,96630.09
2022-09-03T10:00:19.645Z,96624.59
2022-09-03T10:02:55.137Z,96634.88
2022-09-03T10:05:34.316Z,96639.81
2022-09-03T10:08:19.064Z,96635.66
2022-09-03T10:10:50.799Z,96642.03
2022-09-03T10:13:36.900Z,96638.91
2022-09-03T10:16:20.326Z,96642.59
2022-09-03T10:19:10.246Z,96641.38
2022-09-03T10:21:42.491Z,96647.06
2022-09-03T10:24:20.614Z,96652.44
2022-09-03T10:26:49.479Z,96649.75
2022-09-03T10:29:23.930Z,96659.28
2022-09-03T10:32:03.041Z,96658.94
2022-09-03T10:34:49.864Z,96666.19
2022-09-03T10:38:02.905Z,96662.03
2022-09-03T10:40:38.863Z,96662.59
2022-09-03T10:43:30.736Z,96659.00
2022-09-03T10:46:26.018Z,96667.38
2022-09-03T10:49:25.028Z,96665.38
2022-09-03T10:52:32.798Z,96664.56
2022-09-03T10:55:36.753Z,96660.00
2022-09-03T10:58:05.687Z,96665.38
2022-09-03T11:00:41.015Z,96663.78
2022-09-03T11:04:08.296Z,96661.78
2022-09-03T11:07:08.335Z,96667.47
2022-09-03T11:09:43.094Z,96667.00
2022-09-03T11:12:25.972Z,96674.94
2022-09-03T11:15:16.629Z,96674.34
2022-09-03T11:18:17.491Z,96675.94
2022-09-03T11:20:50.216Z,96684.47
2022-09-03T11:23:21.074Z,96678.28
2022-09-03T11:25:58.333Z,96688.25
2022-09-03T11:28:54.744Z,96688.25
2022-09-03T11:31:51.289Z,96685.91
2022-09-03T11:34:32.183Z,96693.47
2022-09-03T11:37:07.809Z,96692.38
2022-09-03T11:39:40.329Z,96694.59
2022-09-03T11:42:41.751Z,96699.66
2022-09-03T11:45:30.811Z,96695.50
2022-09-03T11:48:00.287Z,96694.06
2022-09-03T11:50:31.951Z,96699.31
2022-09-03T11:53:16.938Z,96689.44
2022-09-03T11:55:55.331Z,96696.88
2022-09-03T11:58:30.468Z,96692.00
2022-09-03T12:01:02.157Z,96703.50
2022-09-03T12:03:49.883Z,96704.41
2022-09-03T12:06:33.745Z,96704.41
2022-09-03T12:09:24.533Z,96706.31
2022-09-03T12:12:19.548Z,96716.59
2022-09-03T12:15:30.019Z,96722.75
2022-09-03T12:18:39.141Z,96703.25
2022-09-03T12:21:10.207Z,96721.66
2022-09-03T12:23:47.009Z,96727.13
2022-09-03T12:26:21.916Z,96723.34
2022-09-03T12:28:56.138Z,96734.53
2022-09-03T12:31:36.146Z,96741.78
2022-09-03T12:34:13.368Z,96736.41
2022-09-03T12:36:53.847Z,96740.69
2022-09-03T12:42:29.219Z,96731.75
2022-09-03T12:45:07.762Z,96742.75
2022-09-03T12:47:41.006Z,96749.34
2022-09-03T12:50:21.896Z,96746.00
2022-09-03T12:52:55.914Z,96744.91
2022-09-03T12:55:46.722Z,96744.47
2022-09-03T12:58:36.371Z,96732.69
2022-09-03T13:01:13.851Z,96732.50
2022-09-03T13:03:42.753Z,96748.34
2022-09-03T13:06:20.354Z,96734.66
2022-09-03T13:08:54.115Z,96738.00
2022-09-03T13:11:25.228Z,96733.09
2022-09-03T13:13:57.055Z,96750.28
2022-09-03T13:16:44.330Z,96751.72
2022-09-03T13:19:42.641Z,96754.09
2022-09-03T13:22:57.634Z,96746.84
2022-09-03T13:26:21.834Z,96752.06
2022-09-03T13:29:08.685Z,96746.09
2022-09-03T13:31:41.692Z,96749.13
2022-09-03T13:34:13.464Z,96747.41
2022-09-03T13:37:07.987Z,96745.38
2022-09-03T13:39:51.575Z,96740.34
2022-09-03T13:42:39.110Z,96758.13
2022-09-03T13:45:32.651Z,96754.34
2022-09-03T13:48:35.579Z,96753.25
2022-09-03T13:51:19.355Z,96754.50
2022-09-03T13:54:10.499Z,96746.44
2022-09-03T13:56:48.226Z,96747.53
2022-09-03T13:59:26.461Z,96747.41
2022-09-03T14:02:17.642Z,96742.03
2022-09-03T14:04:58.828Z,96735.47
2022-09-03T14:07:55.985Z,96748.56
2022-09-03T14:10:55.371Z,96746.22
2022-09-03T14:13:57.494Z,96743.44
2022-09-03T14:16:39.108Z,96754.44
2022-09-03T14:19:11.763Z,96749.56
2022-09-03T14:21:55.781Z,96742.78
2022-09-03T14:24:30.325Z,96755.06
2022-09-03T14:27:03.123Z,96754.59
2022-09-03T14:33:19.936Z,96762.03
2022-09-03T14:36:11.788Z,96760.94
2022-09-03T14:39:16.609Z,96761.13
2022-09-03T14:42:05.605Z,96758.44
2022-09-03T14:44:58.775Z,96754.50
2022-09-03T14:47:52.460Z,96755.50
2022-09-03T14:50:55.160Z,96758.81
2022-09-03T14:54:02.974Z,96759.75
2022-09-03T14:57:08.527Z,96752.22
2022-09-03T15:00:12.081Z,96762.16
2022-09-03T15:02:57.446Z,96763.72
2022-09-03T15:05:55.480Z,96771.75
2022-09-03T15:08:44.463Z,96776.66
2022-09-03T15:11:32.783Z,96774.16
2022-09-03T15:14:31.316Z,96772.72
2022-09-03T15:17:35.227Z,96775.88
2022-09-03T15:20:31.163Z,96777.94
2022-09-03T15:23:24.749Z,96788.22
2022-09-03T15:25:59.456Z,96785.06
2022-09-03T15:28:53.887Z,96781.63
2022-09-03T15:31:28.610Z,96781.16
2022-09-03T15:34:30.763Z,96783.88
2022-09-03T15:37:07.239Z,96782.94
2022-09-03T15:39:39.752Z,96785.63
2022-09-03T15:42:19.717Z,96782.63
2022-09-03T15:45:08.600Z,96792.56
2022-09-03T15:47:59.507Z,96786.13
2022-09-03T15:51:12.483Z,96788.81
2022-09-03T15:54:11.003Z,96790.03
2022-09-03T15:56:56.517Z,96786.41
2022-09-03T15:59:35.032Z,96789.09
2022-09-03T16:02:19.239Z,96784.06
2022-09-03T16:05:06.726Z,96779.03
2022-09-03T16:07:38.953Z,96787.66
2022-09-03T16:10:25.780Z,96785.63
2022-09-03T16:13:05.209Z,96785.47
2022-09-03T16:15:52.626Z,96782.34
2022-09-03T16:18:30.686Z,96780.00
2022-09-03T16:21:22.098Z,96788.81
2022-09-03T16:24:04.395Z,96792.28
2022-09-03T16:26:40.354Z,96789.59
2022-09-03T16:29:26.678Z,96783.13
2022-09-03T16:32:24.554Z,96794.97
2022-09-03T16:35:13.778Z,96785.19
2022-09-03T16:38:14.489Z,96771.69
2022-09-03T16:41:01.480Z,96789.97
2022-09-03T16:43:54.858Z,96780.19
2022-09-03T16:46:26.757Z,96783.66
2022-09-03T16:48:58.386Z,96776.88
2022-09-03T16:51:42.967Z,96779.53
2022-09-03T16:54:51.860Z,96784.44
2022-09-03T16:57:25.082Z,96774.19
2022-09-03T17:00:03.287Z,96783.97
2022-09-03T17:02:52.764Z,96774.69
2022-09-03T17:05:52.458Z,96778.31
2022-09-03T17:08:45.856Z,96778.78
2022-09-03T17:11:32.794Z,96776.41
2022-09-03T17:14:14.286Z,96782.09
2022-09-03T17:17:10.213Z,96778.00
2022-09-03T17:20:17.423Z,96780.22
2022-09-03T17:23:17.287Z,96780.06
2022-09-03T17:26:01.108Z,96774.72
2022-09-03T17:29:09.056Z,96783.06
2022-09-03T17:31:52.142Z,96786.34
2022-09-03T17:34:55.387Z,96783.84
2022-09-03T17:37:59.382Z,96774.53
2022-09-03T17:41:05.477Z,96773.44
2022-09-03T17:43:59.220Z,96784.63
2022-09-03T17:46:50.600Z,96769.66
2022-09-03T17:49:49.067Z,96781.75
2022-09-03T17:52:50.171Z,96781.47
2022-09-03T17:55:39.159Z,96776.72
2022-09-03T17:58:17.725Z,96772.97
2022-09-03T18:00:57.125Z,96775.31
2022-09-03T18:03:37.116Z,96775.19
2022-09-03T18:06:29.409Z,96776.28
2022-09-03T18:09:00.871Z,96757.72
2022-09-03T18:11:36.402Z,96771.09
2022-09-03T18:14:12.895Z,96775.03
2022-09-03T18:17:03.739Z,96766.22
2022-09-03T18:20:19.279Z,96771.56
2022-09-03T18:23:21.603Z,96772.19
2022-09-03T18:26:16.048Z,96762.75
2022-09-03T18:29:09.717Z,96770.13
2022-09-03T18:31:57.148Z,96777.06
2022-09-03T18:34:51.275Z,96775.16
2022-09-03T18:37:44.172Z,96774.84
2022-09-03T18:40:43.607Z,96767.63
2022-09-03T18:43:53.645Z,96768.09
2022-09-03T18:50:23.670Z,96769.03
2022-09-03T18:53:29.680Z,96758.50
2022-09-03T18:56:32.901Z,96764.94
2022-09-03T18:59:41.875Z,96760.56
2022-09-03T19:03:11.321Z,96761.19
2022-09-03T19:06:31.593Z,96762.75
2022-09-03T19:09:36.182Z,96761.34
2022-09-03T19:12:39.031Z,96771.41
2022-09-03T19:15:56.725Z,96776.91
2022-09-03T19:19:21.260Z,96777.41
2022-09-03T19:22:30.976Z,96786.03
2022-09-03T19:25:38.445Z,96791.69
2022-09-03T19:28:36.306Z,96779.84
2022-09-03T19:32:00.872Z,96783.44
2022-09-03T19:35:19.590Z,96777.31
2022-09-03T19:38:46.013Z,96785.81
2022-09-03T19:41:56.849Z,96792.41
2022-09-03T19:44:52.797Z,96793.69
2022-09-03T19:48:00.349Z,96792.91
2022-09-03T19:50:53.307Z,96792.25
2022-09-03T19:53:42.704Z,96798.22
2022-09-03T19:56:38.148Z,96799.47
2022-09-03T19:59:39.159Z,96801.19
2022-09-03T20:02:27.096Z,96806.69
2022-09-03T20:05:20.057Z,96805.72
2022-09-03T20:08:11.333Z,96802.75
2022-09-03T20:10:42.545Z,96801.00
2022-09-03T20:13:18.397Z,96803.38
2022-09-03T20:16:05.746Z,96801.47
2022-09-03T20:18:40.279Z,96812.97
2022-09-03T20:21:13.714Z,96809.97
2022-09-03T20:24:01.695Z,96811.41
2022-09-03T20:26:58.023Z,96817.69
2022-09-03T20:29:47.972Z,96818.16
2022-09-03T20:32:32.853Z,96823.50
2022-09-03T20:35:07.799Z,96819.72
2022-09-03T20:37:46.067Z,96813.25
2022-09-03T20:40:42.414Z,96814.50
2022-09-03T20:43:34.638Z,96819.06
2022-09-03T20:46:18.137Z,96810.25
2022-09-03T20:49:17.306Z,96813.38
2022-09-03T20:51:58.515Z,96816.38
2022-09-03T20:54:34.225Z,96819.28
2022-09-03T20:57:15.031Z,96818.78
2022-09-03T21:00:11.342Z,96822.13
2022-09-03T21:02:48.477Z,96817.88
2022-09-03T21:05:32.359Z,96823.06
2022-09-03T21:08:30.413Z,96819.94
2022-09-03T21:11:15.916Z,96821.81
2022-09-03T21:13:52.687Z,96821.81
2022-09-03T21:16:56.396Z,96826.53
2022-09-03T21:19:43.085Z,96826.38
2022-09-03T21:22:41.039Z,96830.28
2022-09-03T21:25:15.708Z,96818.00
2022-09-03T21:27:55.370Z,96825.41
2022-09-03T21:30:24.271Z,96826.34
2022-09-03T21:33:17.600Z,96818.44
2022-09-03T21:35:54.798Z,96806.97
2022-09-03T21:38:28.598Z,96820.81
2022-09-03T21:41:18.012Z,96827.41
2022-09-03T21:44:04.529Z,96829.78
2022-09-03T21:46:42.511Z,96826.78
2022-09-03T21:49:17.629Z,96834.50
2022-09-03T21:51:54.022Z,96835.25
2022-09-03T21:54:34.269Z,96833.22
2022-09-03T21:57:15.885Z,96840.03
2022-09-03T22:00:10.465Z,96837.94
2022-09-03T22:02:42.557Z,96832.31
2022-09-03T22:05:11.591Z,96831.84
2022-09-03T22:07:58.054Z,96844.78
2022-09-03T22:10:36.668Z,96852.38
2022-09-03T22:13:15.243Z,96847.78
2022-09-03T22:15:51.205Z,96852.66
2022-09-03T22:18:29.081Z,96848.22
2022-09-03T22:21:18.616Z,96855.44
2022-09-03T22:24:25.161Z,96861.47
2022-09-03T22:26:59.823Z,96859.72
2022-09-03T22:29:34.367Z,96862.09
2022-09-03T22:32:25.329Z,96854.81
2022-09-03T22:35:23.864Z,96866.03
2022-09-03T22:38:07.375Z,96864.88
2022-09-03T22:40:45.122Z,96860.78
2022-09-03T22:43:44.422Z,96862.38
2022-09-03T22:46:20.393Z,96865.81
2022-09-03T22:49:09.626Z,96860.66
2022-09-03T22:52:06.376Z,96859.41
2022-09-03T22:54:42.221Z,96857.84
2022-09-03T22:57:14.203Z,96854.84
2022-09-03T22:59:59.486Z,96860.22
2022-09-03T23:02:31.622Z,96865.72
2022-09-03T23:05:03.218Z,96865.19
2022-09-03T23:07:57.643Z,96873.78
2022-09-03T23:10:54.161Z,96858.94
2022-09-03T23:13:42.514Z,96864.81
2022-09-03T23:16:26.350Z,96868.72
2022-09-03T23:18:57.963Z,96873.88
2022-09-03T23:21:51.299Z,96869.00
2022-09-03T23:24:31.819Z,96875.59
2022-09-03T23:27:04.900Z,96872.25
2022-09-03T23:29:42.169Z,96868.47
2022-09-03T23:32:10.999Z,96875.13
2022-09-03T23:34:42.607Z,96865.81
2022-09-03T23:37:39.543Z,96886.97
2022-09-03T23:40:26.754Z,96887.13
2022-09-03T23:43:32.083Z,96878.56
2022-09-03T23:46:22.138Z,96871.56
2022-09-03T23:49:29.484Z,96876.66
2022-09-03T23:52:35.364Z,96883.41
2022-09-03T23:55:34.113Z,96880.72
2022-09-03T23:58:31.732Z,96875.22
